Aviation Digital Data Service (ADDS)

Output produced by METARs form (0321 UTC 27 January 2015)
found at http://aviationweather.gov/adds/metars/
 
KGFL 262333Z 2700/2724 36008KT P6SM VCSH OVC050 
     FM270800 01008KT 5SM -SN BR OVC025 
     FM271300 02009KT 2SM -SN BR OVC008 
     FM271700 01012G18KT 3/4SM -SN BR VV003